sensor_id;sensor_type;location;lat;lon;timestamp;P1;durP1;ratioP1;P2;durP2;ratioP2
25359;SDS011;13311;51.386;0.016;2024-03-25T00:00:31;13.85;;;5.75;;
25359;SDS011;13311;51.386;0.016;2024-03-25T00:05:32;13.88;;;4.43;;
25359;SDS011;13311;51.386;0.016;2024-03-25T00:10:32;12.05;;;4.47;;
25359;SDS011;13311;51.386;0.016;2024-03-25T00:15:33;11.57;;;5.35;;
25359;SDS011;13311;51.386;0.016;2024-03-25T00:20:34;11.48;;;5.40;;
25359;SDS011;13311;51.386;0.016;2024-03-25T00:25:35;9.50;;;4.55;;
25359;SDS011;13311;51.386;0.016;2024-03-25T00:30:35;9.50;;;4.57;;
25359;SDS011;13311;51.386;0.016;2024-03-25T00:35:36;9.20;;;4.38;;
25359;SDS011;13311;51.386;0.016;2024-03-25T00:40:38;14.18;;;5.28;;
25359;SDS011;13311;51.386;0.016;2024-03-25T00:45:38;13.45;;;4.55;;
25359;SDS011;13311;51.386;0.016;2024-03-25T00:50:39;15.50;;;5.07;;
25359;SDS011;13311;51.386;0.016;2024-03-25T00:55:40;13.02;;;5.30;;
25359;SDS011;13311;51.386;0.016;2024-03-25T01:00:41;11.27;;;4.75;;
25359;SDS011;13311;51.386;0.016;2024-03-25T01:05:42;10.68;;;4.72;;
25359;SDS011;13311;51.386;0.016;2024-03-25T01:10:43;17.15;;;4.63;;
25359;SDS011;13311;51.386;0.016;2024-03-25T01:15:43;18.23;;;5.22;;
25359;SDS011;13311;51.386;0.016;2024-03-25T01:20:44;8.52;;;4.15;;
25359;SDS011;13311;51.386;0.016;2024-03-25T01:25:45;8.52;;;4.15;;
25359;SDS011;13311;51.386;0.016;2024-03-25T01:30:45;18.35;;;5.75;;
25359;SDS011;13311;51.386;0.016;2024-03-25T01:35:46;11.80;;;4.97;;
25359;SDS011;13311;51.386;0.016;2024-03-25T01:40:47;13.52;;;4.95;;
25359;SDS011;13311;51.386;0.016;2024-03-25T01:45:47;8.63;;;4.38;;
25359;SDS011;13311;51.386;0.016;2024-03-25T01:50:49;12.55;;;4.82;;
25359;SDS011;13311;51.386;0.016;2024-03-25T01:55:50;13.77;;;4.43;;
25359;SDS011;13311;51.386;0.016;2024-03-25T02:00:57;11.82;;;4.07;;
25359;SDS011;13311;51.386;0.016;2024-03-25T02:06:02;9.93;;;3.97;;
25359;SDS011;13311;51.386;0.016;2024-03-25T02:11:09;16.67;;;5.17;;
25359;SDS011;13311;51.386;0.016;2024-03-25T02:16:13;14.52;;;4.30;;
25359;SDS011;13311;51.386;0.016;2024-03-25T02:21:14;12.07;;;4.05;;
25359;SDS011;13311;51.386;0.016;2024-03-25T02:26:14;9.55;;;3.83;;
25359;SDS011;13311;51.386;0.016;2024-03-25T02:31:15;8.65;;;3.72;;
25359;SDS011;13311;51.386;0.016;2024-03-25T02:36:16;12.90;;;5.10;;
25359;SDS011;13311;51.386;0.016;2024-03-25T02:41:16;11.68;;;3.85;;
25359;SDS011;13311;51.386;0.016;2024-03-25T02:46:17;10.77;;;4.43;;
25359;SDS011;13311;51.386;0.016;2024-03-25T02:51:18;9.20;;;4.15;;
25359;SDS011;13311;51.386;0.016;2024-03-25T02:56:19;14.05;;;4.90;;
25359;SDS011;13311;51.386;0.016;2024-03-25T03:01:19;11.45;;;3.42;;
25359;SDS011;13311;51.386;0.016;2024-03-25T03:06:20;10.93;;;3.78;;
25359;SDS011;13311;51.386;0.016;2024-03-25T03:11:22;10.65;;;3.92;;
25359;SDS011;13311;51.386;0.016;2024-03-25T03:16:23;10.27;;;4.25;;
25359;SDS011;13311;51.386;0.016;2024-03-25T03:21:23;11.63;;;3.83;;
25359;SDS011;13311;51.386;0.016;2024-03-25T03:26:24;12.70;;;3.72;;
25359;SDS011;13311;51.386;0.016;2024-03-25T03:31:27;13.23;;;4.13;;
25359;SDS011;13311;51.386;0.016;2024-03-25T03:36:28;7.28;;;3.53;;
25359;SDS011;13311;51.386;0.016;2024-03-25T03:41:29;10.07;;;3.97;;
25359;SDS011;13311;51.386;0.016;2024-03-25T03:46:30;15.93;;;4.18;;
25359;SDS011;13311;51.386;0.016;2024-03-25T03:51:31;8.85;;;3.50;;
25359;SDS011;13311;51.386;0.016;2024-03-25T03:56:31;10.65;;;4.03;;
25359;SDS011;13311;51.386;0.016;2024-03-25T04:01:32;10.15;;;3.83;;
25359;SDS011;13311;51.386;0.016;2024-03-25T04:06:33;7.65;;;3.75;;
25359;SDS011;13311;51.386;0.016;2024-03-25T04:11:35;10.40;;;3.88;;
25359;SDS011;13311;51.386;0.016;2024-03-25T04:16:36;13.15;;;3.20;;
25359;SDS011;13311;51.386;0.016;2024-03-25T04:21:37;10.40;;;4.60;;
25359;SDS011;13311;51.386;0.016;2024-03-25T04:26:39;12.88;;;3.83;;
25359;SDS011;13311;51.386;0.016;2024-03-25T04:31:39;12.45;;;4.13;;
25359;SDS011;13311;51.386;0.016;2024-03-25T04:36:40;12.77;;;4.35;;
25359;SDS011;13311;51.386;0.016;2024-03-25T04:41:41;15.10;;;4.13;;
25359;SDS011;13311;51.386;0.016;2024-03-25T04:46:41;13.90;;;4.13;;
25359;SDS011;13311;51.386;0.016;2024-03-25T04:51:42;12.95;;;4.03;;
25359;SDS011;13311;51.386;0.016;2024-03-25T04:56:43;10.88;;;4.03;;
25359;SDS011;13311;51.386;0.016;2024-03-25T05:01:44;8.15;;;4.05;;
25359;SDS011;13311;51.386;0.016;2024-03-25T05:06:45;11.20;;;3.95;;
25359;SDS011;13311;51.386;0.016;2024-03-25T05:11:46;14.00;;;4.85;;
25359;SDS011;13311;51.386;0.016;2024-03-25T05:16:46;7.13;;;4.03;;
25359;SDS011;13311;51.386;0.016;2024-03-25T05:21:48;10.70;;;4.40;;
25359;SDS011;13311;51.386;0.016;2024-03-25T05:26:49;11.23;;;4.60;;
25359;SDS011;13311;51.386;0.016;2024-03-25T05:31:56;14.57;;;4.22;;
25359;SDS011;13311;51.386;0.016;2024-03-25T05:37:00;23.67;;;5.45;;
25359;SDS011;13311;51.386;0.016;2024-03-25T05:42:01;16.52;;;5.43;;
25359;SDS011;13311;51.386;0.016;2024-03-25T05:47:02;20.58;;;5.10;;
25359;SDS011;13311;51.386;0.016;2024-03-25T05:52:03;12.95;;;4.38;;
25359;SDS011;13311;51.386;0.016;2024-03-25T05:57:04;16.83;;;5.85;;
25359;SDS011;13311;51.386;0.016;2024-03-25T06:02:05;15.70;;;5.57;;
25359;SDS011;13311;51.386;0.016;2024-03-25T06:07:06;18.70;;;5.32;;
25359;SDS011;13311;51.386;0.016;2024-03-25T06:12:06;14.02;;;4.90;;
25359;SDS011;13311;51.386;0.016;2024-03-25T06:17:08;15.73;;;5.30;;
25359;SDS011;13311;51.386;0.016;2024-03-25T06:22:09;19.33;;;5.10;;
25359;SDS011;13311;51.386;0.016;2024-03-25T06:27:09;19.35;;;5.10;;
25359;SDS011;13311;51.386;0.016;2024-03-25T06:32:10;18.67;;;4.07;;
25359;SDS011;13311;51.386;0.016;2024-03-25T06:37:30;21.52;;;5.30;;
25359;SDS011;13311;51.386;0.016;2024-03-25T06:42:30;22.90;;;4.65;;
25359;SDS011;13311;51.386;0.016;2024-03-25T06:47:31;20.42;;;4.68;;
25359;SDS011;13311;51.386;0.016;2024-03-25T06:52:32;19.85;;;4.93;;
25359;SDS011;13311;51.386;0.016;2024-03-25T06:57:32;18.30;;;4.55;;
25359;SDS011;13311;51.386;0.016;2024-03-25T07:02:33;27.60;;;5.43;;
25359;SDS011;13311;51.386;0.016;2024-03-25T07:07:34;24.67;;;5.15;;
25359;SDS011;13311;51.386;0.016;2024-03-25T07:12:35;20.33;;;4.40;;
25359;SDS011;13311;51.386;0.016;2024-03-25T07:17:35;14.88;;;4.18;;
25359;SDS011;13311;51.386;0.016;2024-03-25T07:22:36;16.02;;;3.90;;
25359;SDS011;13311;51.386;0.016;2024-03-25T07:27:37;18.13;;;4.13;;
25359;SDS011;13311;51.386;0.016;2024-03-25T07:32:38;13.20;;;3.95;;
25359;SDS011;13311;51.386;0.016;2024-03-25T07:37:38;23.80;;;4.57;;
25359;SDS011;13311;51.386;0.016;2024-03-25T07:42:39;14.77;;;2.83;;
25359;SDS011;13311;51.386;0.016;2024-03-25T07:47:40;13.23;;;4.10;;
25359;SDS011;13311;51.386;0.016;2024-03-25T07:52:41;17.75;;;4.65;;
25359;SDS011;13311;51.386;0.016;2024-03-25T07:57:41;12.82;;;3.97;;
25359;SDS011;13311;51.386;0.016;2024-03-25T08:02:42;14.82;;;3.40;;
25359;SDS011;13311;51.386;0.016;2024-03-25T08:07:43;13.90;;;4.40;;
25359;SDS011;13311;51.386;0.016;2024-03-25T08:12:44;14.63;;;3.22;;
25359;SDS011;13311;51.386;0.016;2024-03-25T08:17:44;19.65;;;4.22;;
25359;SDS011;13311;51.386;0.016;2024-03-25T08:22:45;15.85;;;3.85;;
25359;SDS011;13311;51.386;0.016;2024-03-25T08:27:46;13.05;;;4.50;;
25359;SDS011;13311;51.386;0.016;2024-03-25T08:32:46;20.65;;;3.83;;
25359;SDS011;13311;51.386;0.016;2024-03-25T08:37:47;9.35;;;3.65;;
25359;SDS011;13311;51.386;0.016;2024-03-25T08:42:48;14.65;;;3.33;;
25359;SDS011;13311;51.386;0.016;2024-03-25T08:47:48;11.35;;;3.20;;
25359;SDS011;13311;51.386;0.016;2024-03-25T08:52:49;11.90;;;3.22;;
25359;SDS011;13311;51.386;0.016;2024-03-25T08:57:50;10.63;;;2.63;;
25359;SDS011;13311;51.386;0.016;2024-03-25T09:02:51;10.55;;;2.97;;
25359;SDS011;13311;51.386;0.016;2024-03-25T09:07:52;12.77;;;3.00;;
25359;SDS011;13311;51.386;0.016;2024-03-25T09:12:53;11.80;;;3.22;;
25359;SDS011;13311;51.386;0.016;2024-03-25T09:17:55;13.05;;;2.67;;
25359;SDS011;13311;51.386;0.016;2024-03-25T09:22:56;13.05;;;3.20;;
25359;SDS011;13311;51.386;0.016;2024-03-25T09:27:56;7.70;;;2.60;;
25359;SDS011;13311;51.386;0.016;2024-03-25T09:32:57;9.75;;;2.63;;
25359;SDS011;13311;51.386;0.016;2024-03-25T09:37:58;13.60;;;2.97;;
25359;SDS011;13311;51.386;0.016;2024-03-25T09:42:59;12.88;;;3.10;;
25359;SDS011;13311;51.386;0.016;2024-03-25T09:48:03;14.65;;;3.00;;
25359;SDS011;13311;51.386;0.016;2024-03-25T09:53:05;12.38;;;3.42;;
25359;SDS011;13311;51.386;0.016;2024-03-25T09:58:06;13.07;;;3.15;;
25359;SDS011;13311;51.386;0.016;2024-03-25T10:03:07;12.15;;;2.92;;
25359;SDS011;13311;51.386;0.016;2024-03-25T10:08:08;9.32;;;2.22;;
25359;SDS011;13311;51.386;0.016;2024-03-25T10:13:09;11.25;;;3.13;;
25359;SDS011;13311;51.386;0.016;2024-03-25T10:18:13;9.85;;;2.67;;
25359;SDS011;13311;51.386;0.016;2024-03-25T10:23:13;8.35;;;2.25;;
25359;SDS011;13311;51.386;0.016;2024-03-25T10:28:14;10.50;;;2.60;;
25359;SDS011;13311;51.386;0.016;2024-03-25T10:33:15;10.88;;;2.85;;
25359;SDS011;13311;51.386;0.016;2024-03-25T10:38:17;13.00;;;2.47;;
25359;SDS011;13311;51.386;0.016;2024-03-25T10:43:19;16.10;;;3.15;;
25359;SDS011;13311;51.386;0.016;2024-03-25T10:53:28;15.63;;;3.08;;
25359;SDS011;13311;51.386;0.016;2024-03-25T10:58:30;14.55;;;3.33;;
25359;SDS011;13311;51.386;0.016;2024-03-25T11:03:33;9.77;;;2.65;;
25359;SDS011;13311;51.386;0.016;2024-03-25T11:08:34;10.40;;;2.67;;
25359;SDS011;13311;51.386;0.016;2024-03-25T11:13:35;13.63;;;4.00;;
25359;SDS011;13311;51.386;0.016;2024-03-25T11:18:38;9.13;;;2.28;;
25359;SDS011;13311;51.386;0.016;2024-03-25T11:23:41;10.75;;;2.65;;
25359;SDS011;13311;51.386;0.016;2024-03-25T11:28:42;10.00;;;3.33;;
25359;SDS011;13311;51.386;0.016;2024-03-25T11:33:43;11.80;;;3.10;;
25359;SDS011;13311;51.386;0.016;2024-03-25T11:38:44;12.05;;;3.20;;
25359;SDS011;13311;51.386;0.016;2024-03-25T11:43:46;13.77;;;3.03;;
25359;SDS011;13311;51.386;0.016;2024-03-25T11:48:47;9.75;;;3.08;;
25359;SDS011;13311;51.386;0.016;2024-03-25T11:53:48;12.65;;;3.30;;
25359;SDS011;13311;51.386;0.016;2024-03-25T11:58:49;12.93;;;3.53;;
25359;SDS011;13311;51.386;0.016;2024-03-25T12:03:50;9.05;;;2.67;;
25359;SDS011;13311;51.386;0.016;2024-03-25T12:08:50;8.60;;;3.10;;
25359;SDS011;13311;51.386;0.016;2024-03-25T12:14:10;10.10;;;2.83;;
25359;SDS011;13311;51.386;0.016;2024-03-25T12:19:11;9.63;;;2.60;;
25359;SDS011;13311;51.386;0.016;2024-03-25T12:24:11;9.20;;;3.05;;
25359;SDS011;13311;51.386;0.016;2024-03-25T12:29:12;13.55;;;3.80;;
25359;SDS011;13311;51.386;0.016;2024-03-25T12:34:13;7.75;;;2.22;;
25359;SDS011;13311;51.386;0.016;2024-03-25T12:39:17;14.30;;;3.72;;
25359;SDS011;13311;51.386;0.016;2024-03-25T12:44:18;8.85;;;3.00;;
25359;SDS011;13311;51.386;0.016;2024-03-25T12:49:19;11.90;;;2.95;;
25359;SDS011;13311;51.386;0.016;2024-03-25T12:54:21;11.77;;;3.35;;
25359;SDS011;13311;51.386;0.016;2024-03-25T12:59:22;10.65;;;3.50;;
25359;SDS011;13311;51.386;0.016;2024-03-25T13:04:22;15.05;;;4.22;;
25359;SDS011;13311;51.386;0.016;2024-03-25T13:09:23;13.73;;;3.45;;
25359;SDS011;13311;51.386;0.016;2024-03-25T13:14:24;19.55;;;3.58;;
25359;SDS011;13311;51.386;0.016;2024-03-25T13:19:25;10.35;;;2.60;;
25359;SDS011;13311;51.386;0.016;2024-03-25T13:24:28;9.23;;;2.33;;
25359;SDS011;13311;51.386;0.016;2024-03-25T13:29:28;11.88;;;3.22;;
25359;SDS011;13311;51.386;0.016;2024-03-25T13:34:29;9.05;;;2.80;;
25359;SDS011;13311;51.386;0.016;2024-03-25T13:39:30;13.02;;;2.90;;
25359;SDS011;13311;51.386;0.016;2024-03-25T13:44:31;7.75;;;2.47;;
25359;SDS011;13311;51.386;0.016;2024-03-25T13:49:33;10.98;;;2.88;;
25359;SDS011;13311;51.386;0.016;2024-03-25T13:54:34;9.90;;;2.50;;
25359;SDS011;13311;51.386;0.016;2024-03-25T13:59:35;7.90;;;2.53;;
25359;SDS011;13311;51.386;0.016;2024-03-25T14:04:36;9.20;;;2.40;;
25359;SDS011;13311;51.386;0.016;2024-03-25T14:09:36;13.88;;;2.72;;
25359;SDS011;13311;51.386;0.016;2024-03-25T14:14:37;15.30;;;2.80;;
25359;SDS011;13311;51.386;0.016;2024-03-25T14:19:38;11.00;;;2.40;;
25359;SDS011;13311;51.386;0.016;2024-03-25T14:24:38;11.45;;;2.58;;
25359;SDS011;13311;51.386;0.016;2024-03-25T14:29:39;11.85;;;2.60;;
25359;SDS011;13311;51.386;0.016;2024-03-25T14:34:41;8.23;;;2.50;;
25359;SDS011;13311;51.386;0.016;2024-03-25T14:39:41;9.27;;;2.50;;
25359;SDS011;13311;51.386;0.016;2024-03-25T14:44:42;11.27;;;2.53;;
25359;SDS011;13311;51.386;0.016;2024-03-25T14:49:44;6.70;;;2.20;;
25359;SDS011;13311;51.386;0.016;2024-03-25T14:54:45;10.73;;;2.40;;
25359;SDS011;13311;51.386;0.016;2024-03-25T14:59:46;6.68;;;2.50;;
25359;SDS011;13311;51.386;0.016;2024-03-25T15:04:46;7.45;;;2.17;;
25359;SDS011;13311;51.386;0.016;2024-03-25T15:09:50;10.57;;;2.25;;
25359;SDS011;13311;51.386;0.016;2024-03-25T15:14:52;9.60;;;2.25;;
25359;SDS011;13311;51.386;0.016;2024-03-25T15:19:53;12.88;;;2.30;;
25359;SDS011;13311;51.386;0.016;2024-03-25T15:24:53;9.63;;;2.80;;
25359;SDS011;13311;51.386;0.016;2024-03-25T15:29:54;9.20;;;2.28;;
25359;SDS011;13311;51.386;0.016;2024-03-25T15:34:55;10.63;;;2.63;;
25359;SDS011;13311;51.386;0.016;2024-03-25T15:39:56;10.38;;;2.92;;
25359;SDS011;13311;51.386;0.016;2024-03-25T15:44:56;9.18;;;2.55;;
25359;SDS011;13311;51.386;0.016;2024-03-25T15:49:57;9.30;;;2.63;;
25359;SDS011;13311;51.386;0.016;2024-03-25T15:54:58;9.30;;;2.78;;
25359;SDS011;13311;51.386;0.016;2024-03-25T15:59:58;10.45;;;3.33;;
25359;SDS011;13311;51.386;0.016;2024-03-25T16:05:00;7.82;;;2.55;;
25359;SDS011;13311;51.386;0.016;2024-03-25T16:10:00;4.85;;;1.90;;
25359;SDS011;13311;51.386;0.016;2024-03-25T16:15:01;10.70;;;2.60;;
25359;SDS011;13311;51.386;0.016;2024-03-25T16:20:04;9.68;;;2.92;;
25359;SDS011;13311;51.386;0.016;2024-03-25T16:25:06;5.28;;;2.45;;
25359;SDS011;13311;51.386;0.016;2024-03-25T16:30:08;7.05;;;2.67;;
25359;SDS011;13311;51.386;0.016;2024-03-25T16:35:10;10.15;;;2.83;;
25359;SDS011;13311;51.386;0.016;2024-03-25T16:40:11;7.90;;;2.67;;
25359;SDS011;13311;51.386;0.016;2024-03-25T16:45:12;7.95;;;3.10;;
25359;SDS011;13311;51.386;0.016;2024-03-25T16:50:13;9.40;;;3.33;;
25359;SDS011;13311;51.386;0.016;2024-03-25T16:55:13;12.15;;;3.70;;
25359;SDS011;13311;51.386;0.016;2024-03-25T17:00:14;10.15;;;3.70;;
25359;SDS011;13311;51.386;0.016;2024-03-25T17:05:16;12.10;;;4.40;;
25359;SDS011;13311;51.386;0.016;2024-03-25T17:10:16;10.93;;;4.07;;
25359;SDS011;13311;51.386;0.016;2024-03-25T17:15:17;9.77;;;4.13;;
25359;SDS011;13311;51.386;0.016;2024-03-25T17:20:18;14.75;;;5.32;;
25359;SDS011;13311;51.386;0.016;2024-03-25T17:25:18;7.97;;;4.40;;
25359;SDS011;13311;51.386;0.016;2024-03-25T17:30:19;13.10;;;4.47;;
25359;SDS011;13311;51.386;0.016;2024-03-25T17:35:20;9.35;;;4.15;;
25359;SDS011;13311;51.386;0.016;2024-03-25T17:40:21;13.35;;;5.05;;
25359;SDS011;13311;51.386;0.016;2024-03-25T17:45:21;13.63;;;4.07;;
25359;SDS011;13311;51.386;0.016;2024-03-25T17:50:22;12.85;;;4.57;;
25359;SDS011;13311;51.386;0.016;2024-03-25T17:55:23;16.38;;;4.38;;
25359;SDS011;13311;51.386;0.016;2024-03-25T18:00:23;10.75;;;4.25;;
25359;SDS011;13311;51.386;0.016;2024-03-25T18:05:24;12.48;;;4.68;;
25359;SDS011;13311;51.386;0.016;2024-03-25T18:10:25;17.55;;;5.45;;
25359;SDS011;13311;51.386;0.016;2024-03-25T18:15:25;12.75;;;4.40;;
25359;SDS011;13311;51.386;0.016;2024-03-25T18:20:26;12.65;;;4.60;;
25359;SDS011;13311;51.386;0.016;2024-03-25T18:25:27;12.95;;;4.70;;
25359;SDS011;13311;51.386;0.016;2024-03-25T18:30:27;11.85;;;5.03;;
25359;SDS011;13311;51.386;0.016;2024-03-25T18:35:28;15.25;;;5.95;;
25359;SDS011;13311;51.386;0.016;2024-03-25T18:40:34;16.33;;;6.25;;
25359;SDS011;13311;51.386;0.016;2024-03-25T18:45:35;15.25;;;6.97;;
25359;SDS011;13311;51.386;0.016;2024-03-25T18:50:36;16.38;;;6.10;;
25359;SDS011;13311;51.386;0.016;2024-03-25T18:55:36;11.23;;;5.70;;
25359;SDS011;13311;51.386;0.016;2024-03-25T19:00:37;13.73;;;4.97;;
25359;SDS011;13311;51.386;0.016;2024-03-25T19:05:39;15.02;;;5.55;;
25359;SDS011;13311;51.386;0.016;2024-03-25T19:10:40;17.05;;;7.20;;
25359;SDS011;13311;51.386;0.016;2024-03-25T19:15:41;17.83;;;6.82;;
25359;SDS011;13311;51.386;0.016;2024-03-25T19:20:41;19.25;;;7.85;;
25359;SDS011;13311;51.386;0.016;2024-03-25T19:25:42;17.90;;;8.20;;
25359;SDS011;13311;51.386;0.016;2024-03-25T19:30:43;19.77;;;8.27;;
25359;SDS011;13311;51.386;0.016;2024-03-25T19:35:44;16.80;;;6.03;;
25359;SDS011;13311;51.386;0.016;2024-03-25T19:40:44;15.43;;;6.15;;
25359;SDS011;13311;51.386;0.016;2024-03-25T19:45:45;13.32;;;6.30;;
25359;SDS011;13311;51.386;0.016;2024-03-25T19:50:47;16.08;;;6.15;;
25359;SDS011;13311;51.386;0.016;2024-03-25T19:55:56;17.20;;;6.13;;
25359;SDS011;13311;51.386;0.016;2024-03-25T20:01:05;14.18;;;6.85;;
25359;SDS011;13311;51.386;0.016;2024-03-25T20:06:10;17.20;;;7.07;;
25359;SDS011;13311;51.386;0.016;2024-03-25T20:11:12;16.95;;;6.50;;
25359;SDS011;13311;51.386;0.016;2024-03-25T20:16:13;16.08;;;6.60;;
25359;SDS011;13311;51.386;0.016;2024-03-25T20:21:14;20.83;;;6.78;;
25359;SDS011;13311;51.386;0.016;2024-03-25T20:26:17;14.10;;;5.53;;
25359;SDS011;13311;51.386;0.016;2024-03-25T20:31:18;12.98;;;6.40;;
25359;SDS011;13311;51.386;0.016;2024-03-25T20:36:19;14.65;;;4.70;;
25359;SDS011;13311;51.386;0.016;2024-03-25T20:41:20;10.48;;;4.72;;
25359;SDS011;13311;51.386;0.016;2024-03-25T20:46:21;12.57;;;5.50;;
25359;SDS011;13311;51.386;0.016;2024-03-25T20:51:23;11.02;;;4.50;;
25359;SDS011;13311;51.386;0.016;2024-03-25T20:56:23;11.00;;;4.82;;
25359;SDS011;13311;51.386;0.016;2024-03-25T21:01:24;10.18;;;4.63;;
25359;SDS011;13311;51.386;0.016;2024-03-25T21:06:25;13.65;;;4.75;;
25359;SDS011;13311;51.386;0.016;2024-03-25T21:11:25;12.57;;;4.75;;
25359;SDS011;13311;51.386;0.016;2024-03-25T21:16:26;13.48;;;5.22;;
25359;SDS011;13311;51.386;0.016;2024-03-25T21:21:27;12.63;;;5.05;;
25359;SDS011;13311;51.386;0.016;2024-03-25T21:26:27;9.18;;;5.32;;
25359;SDS011;13311;51.386;0.016;2024-03-25T21:31:28;12.30;;;4.82;;
25359;SDS011;13311;51.386;0.016;2024-03-25T21:36:29;14.27;;;4.68;;
25359;SDS011;13311;51.386;0.016;2024-03-25T21:41:30;10.05;;;4.93;;
25359;SDS011;13311;51.386;0.016;2024-03-25T21:46:30;9.50;;;5.10;;
25359;SDS011;13311;51.386;0.016;2024-03-25T21:51:31;9.50;;;4.82;;
25359;SDS011;13311;51.386;0.016;2024-03-25T21:56:32;12.93;;;5.35;;
25359;SDS011;13311;51.386;0.016;2024-03-25T22:01:32;8.93;;;4.50;;
25359;SDS011;13311;51.386;0.016;2024-03-25T22:06:33;13.75;;;4.90;;
25359;SDS011;13311;51.386;0.016;2024-03-25T22:11:34;10.50;;;4.53;;
25359;SDS011;13311;51.386;0.016;2024-03-25T22:16:34;15.43;;;5.75;;
25359;SDS011;13311;51.386;0.016;2024-03-25T22:21:35;10.73;;;4.78;;
25359;SDS011;13311;51.386;0.016;2024-03-25T22:26:36;9.05;;;4.35;;
25359;SDS011;13311;51.386;0.016;2024-03-25T22:31:37;11.20;;;4.45;;
25359;SDS011;13311;51.386;0.016;2024-03-25T22:36:37;12.45;;;4.72;;
25359;SDS011;13311;51.386;0.016;2024-03-25T22:41:38;7.97;;;4.32;;
25359;SDS011;13311;51.386;0.016;2024-03-25T22:46:39;8.98;;;4.00;;
25359;SDS011;13311;51.386;0.016;2024-03-25T22:51:39;8.55;;;3.72;;
25359;SDS011;13311;51.386;0.016;2024-03-25T22:56:40;12.45;;;4.22;;
25359;SDS011;13311;51.386;0.016;2024-03-25T23:01:41;11.20;;;4.50;;
25359;SDS011;13311;51.386;0.016;2024-03-25T23:06:42;9.60;;;4.38;;
25359;SDS011;13311;51.386;0.016;2024-03-25T23:11:42;9.80;;;4.50;;
25359;SDS011;13311;51.386;0.016;2024-03-25T23:16:43;10.18;;;4.43;;
25359;SDS011;13311;51.386;0.016;2024-03-25T23:21:44;10.73;;;3.88;;
25359;SDS011;13311;51.386;0.016;2024-03-25T23:26:44;7.07;;;3.90;;
25359;SDS011;13311;51.386;0.016;2024-03-25T23:31:45;8.35;;;4.07;;
25359;SDS011;13311;51.386;0.016;2024-03-25T23:36:46;11.27;;;4.47;;
25359;SDS011;13311;51.386;0.016;2024-03-25T23:41:46;6.60;;;3.53;;
25359;SDS011;13311;51.386;0.016;2024-03-25T23:46:47;10.05;;;4.53;;
25359;SDS011;13311;51.386;0.016;2024-03-25T23:51:48;10.90;;;4.68;;
25359;SDS011;13311;51.386;0.016;2024-03-25T23:56:48;7.53;;;3.58;;
